createdAt,value
2023-04-02T00:00:17.655Z,100336.94
2023-04-02T00:05:49.526Z,100344.13
2023-04-02T00:10:55.192Z,100345.96
2023-04-02T00:15:59.986Z,100347.27
2023-04-02T00:21:11.853Z,100353.43
2023-04-02T00:26:37.784Z,100356.80
2023-04-02T00:31:44.885Z,100364.54
2023-04-02T00:36:50.945Z,100368.29
2023-04-02T00:42:04.546Z,100368.31
2023-04-02T00:47:16.559Z,100369.55
2023-04-02T00:52:24.789Z,100375.11
2023-04-02T00:57:29.484Z,100375.83
2023-04-02T01:02:37.786Z,100384.90
2023-04-02T01:08:00.936Z,100392.47
2023-04-02T01:13:19.409Z,100398.48
2023-04-02T01:18:36.273Z,100409.04
2023-04-02T01:23:52.300Z,100413.95
2023-04-02T01:29:03.055Z,100414.42
2023-04-02T01:34:09.761Z,100419.30
2023-04-02T01:39:26.839Z,100422.98
2023-04-02T01:44:35.817Z,100431.48
2023-04-02T01:49:42.037Z,100433.56
2023-04-02T01:54:47.207Z,100439.52
2023-04-02T01:59:51.777Z,100446.02
2023-04-02T02:04:55.888Z,100448.96
2023-04-02T02:09:59.843Z,100450.64
2023-04-02T02:15:04.424Z,100450.80
2023-04-02T02:20:10.833Z,100459.42
2023-04-02T02:25:18.274Z,100468.30
2023-04-02T02:30:26.467Z,100469.14
2023-04-02T02:35:35.342Z,100476.34
2023-04-02T02:40:44.933Z,100476.59
2023-04-02T02:45:50.837Z,100478.55
2023-04-02T02:50:56.182Z,100488.83
2023-04-02T02:56:01.384Z,100492.55
2023-04-02T03:01:12.967Z,100500.45
2023-04-02T03:06:20.122Z,100504.59
2023-04-02T03:11:34.729Z,100511.73
2023-04-02T03:16:43.666Z,100517.31
2023-04-02T03:21:52.705Z,100522.09
2023-04-02T03:27:01.445Z,100527.83
2023-04-02T03:32:11.735Z,100533.56
2023-04-02T03:37:20.517Z,100534.78
2023-04-02T03:42:25.761Z,100544.92
2023-04-02T03:47:34.791Z,100552.52
2023-04-02T03:52:38.985Z,100563.74
2023-04-02T03:57:53.908Z,100569.95
2023-04-02T04:03:04.426Z,100578.67
2023-04-02T04:08:14.047Z,100585.77
2023-04-02T04:13:23.550Z,100594.33
2023-04-02T04:18:37.348Z,100600.94
2023-04-02T04:23:50.954Z,100610.70
2023-04-02T04:29:05.795Z,100617.13
2023-04-02T04:34:17.646Z,100622.10
2023-04-02T04:39:29.515Z,100624.38
2023-04-02T04:44:40.358Z,100632.30
2023-04-02T04:49:49.414Z,100640.97
2023-04-02T04:54:53.576Z,100648.26
2023-04-02T05:00:07.456Z,100656.46
2023-04-02T05:05:20.966Z,100665.27
2023-04-02T05:10:33.199Z,100678.02
2023-04-02T05:15:43.531Z,100685.30
2023-04-02T05:20:53.423Z,100695.48
2023-04-02T05:26:06.501Z,100699.67
2023-04-02T05:31:16.952Z,100703.63
2023-04-02T05:36:22.753Z,100708.75
2023-04-02T05:41:36.307Z,100711.44
2023-04-02T05:46:49.264Z,100719.48
2023-04-02T05:51:57.902Z,100725.25
2023-04-02T05:57:04.599Z,100731.02
2023-04-02T06:02:19.110Z,100746.02
2023-04-02T06:07:27.865Z,100752.44
2023-04-02T06:12:42.059Z,100760.42
2023-04-02T06:17:51.121Z,100768.64
2023-04-02T06:23:00.474Z,100775.73
2023-04-02T06:28:11.919Z,100784.98
2023-04-02T06:33:24.829Z,100794.20
2023-04-02T06:38:31.570Z,100801.64
2023-04-02T06:43:45.919Z,100811.89
2023-04-02T06:49:01.810Z,100812.35
2023-04-02T06:54:05.913Z,100818.77
2023-04-02T06:59:14.427Z,100831.10
2023-04-02T07:04:32.681Z,100838.81
2023-04-02T07:09:37.714Z,100843.61
2023-04-02T07:14:43.518Z,100849.01
2023-04-02T07:19:49.130Z,100861.67
2023-04-02T07:24:55.067Z,100869.04
2023-04-02T07:29:58.845Z,100877.25
2023-04-02T07:35:03.358Z,100879.90
2023-04-02T07:40:17.366Z,100888.73
2023-04-02T07:45:22.673Z,100885.82
2023-04-02T07:50:30.475Z,100891.36
2023-04-02T07:55:34.673Z,100893.58
2023-04-02T08:00:38.798Z,100901.12
2023-04-02T08:05:42.723Z,100908.48
2023-04-02T08:10:46.500Z,100913.39
2023-04-02T08:15:50.439Z,100922.92
2023-04-02T08:20:54.349Z,100930.29
2023-04-02T08:25:58.219Z,100938.11
2023-04-02T08:31:04.105Z,100944.02
2023-04-02T08:36:14.658Z,100952.88
2023-04-02T08:41:27.428Z,100954.42
2023-04-02T08:46:37.322Z,100959.84
2023-04-02T08:51:41.295Z,100962.30
2023-04-02T08:56:52.068Z,100972.45
2023-04-02T09:02:03.925Z,100978.41
2023-04-02T09:07:14.179Z,100980.81
2023-04-02T09:12:20.675Z,100987.40
2023-04-02T09:17:27.632Z,100987.60
2023-04-02T09:22:38.008Z,100988.65
2023-04-02T09:27:42.772Z,100996.19
2023-04-02T09:32:50.585Z,101008.70
2023-04-02T09:38:16.858Z,101016.39
2023-04-02T09:43:22.357Z,101023.67
2023-04-02T09:48:30.156Z,101034.20
2023-04-02T09:53:37.930Z,101038.11
2023-04-02T09:58:44.034Z,101045.88
2023-04-02T10:03:48.082Z,101054.95
2023-04-02T10:08:52.314Z,101065.77
2023-04-02T10:14:00.474Z,101071.83
2023-04-02T10:19:07.164Z,101075.94
2023-04-02T10:24:13.867Z,101078.67
2023-04-02T10:29:34.906Z,101083.42
2023-04-02T10:34:47.421Z,101095.13
2023-04-02T10:39:56.721Z,101106.17
2023-04-02T10:45:05.530Z,101114.19
2023-04-02T10:50:26.132Z,101123.30
2023-04-02T10:55:33.917Z,101130.39
2023-04-02T11:00:43.595Z,101132.22
2023-04-02T11:05:49.742Z,101138.02
2023-04-02T11:10:58.778Z,101142.91
2023-04-02T11:16:03.733Z,101155.34
2023-04-02T11:21:31.444Z,101161.80
2023-04-02T11:26:41.015Z,101168.59
2023-04-02T11:31:46.116Z,101171.67
2023-04-02T11:37:07.907Z,101177.55
2023-04-02T11:42:32.452Z,101183.00
2023-04-02T11:47:36.235Z,101187.60
2023-04-02T11:52:52.518Z,101193.23
2023-04-02T11:58:30.263Z,101199.91
2023-04-02T12:03:58.664Z,101206.38
2023-04-02T12:09:18.121Z,101217.25
2023-04-02T12:14:45.903Z,101226.63
2023-04-02T12:19:52.987Z,101238.19
2023-04-02T12:25:04.125Z,101245.59
2023-04-02T12:30:18.138Z,101251.34
2023-04-02T12:35:33.523Z,101256.33
2023-04-02T12:40:37.444Z,101257.86
2023-04-02T12:45:41.526Z,101262.88
2023-04-02T12:50:45.483Z,101270.89
2023-04-02T12:55:50.859Z,101277.13
2023-04-02T13:01:12.452Z,101283.64
2023-04-02T13:06:25.916Z,101293.48
2023-04-02T13:11:37.810Z,101301.49
2023-04-02T13:16:41.918Z,101307.29
2023-04-02T13:21:46.686Z,101319.88
2023-04-02T13:26:53.601Z,101327.15
2023-04-02T13:31:59.783Z,101335.05
2023-04-02T13:37:03.687Z,101344.52
2023-04-02T13:42:11.194Z,101346.62
2023-04-02T13:47:16.632Z,101354.76
2023-04-02T13:52:20.375Z,101355.07
2023-04-02T13:57:24.401Z,101361.76
2023-04-02T14:02:29.719Z,101366.56
2023-04-02T14:07:54.701Z,101369.81
2023-04-02T14:13:12.249Z,101375.91
2023-04-02T14:18:40.807Z,101375.64
2023-04-02T14:24:01.074Z,101393.85
2023-04-02T14:29:11.349Z,101402.94
2023-04-02T14:34:26.609Z,101408.75
2023-04-02T14:39:42.174Z,101403.35
2023-04-02T14:44:52.875Z,101411.65
2023-04-02T14:50:02.703Z,101428.38
2023-04-02T14:55:14.397Z,101436.98
2023-04-02T15:00:32.800Z,101440.80
2023-04-02T15:05:43.823Z,101451.60
2023-04-02T15:11:01.944Z,101457.24
2023-04-02T15:16:14.568Z,101472.27
2023-04-02T15:21:49.833Z,101475.80
2023-04-02T15:27:24.503Z,101482.54
2023-04-02T15:32:40.265Z,101485.88
2023-04-02T15:37:52.094Z,101495.48
2023-04-02T15:43:07.619Z,101512.48
2023-04-02T15:48:48.737Z,101523.79
2023-04-02T15:54:01.831Z,101532.55
2023-04-02T15:59:29.776Z,101544.46
2023-04-02T16:04:45.754Z,101547.84
2023-04-02T16:09:57.712Z,101561.32
2023-04-02T16:15:14.407Z,101566.42
2023-04-02T16:20:23.547Z,101575.08
2023-04-02T16:25:31.582Z,101579.94
2023-04-02T16:30:38.921Z,101589.88
2023-04-02T16:35:56.257Z,101602.60
2023-04-02T16:41:09.428Z,101609.30
2023-04-02T16:46:38.364Z,101610.62
2023-04-02T16:51:52.450Z,101617.73
2023-04-02T16:57:16.727Z,101627.15
2023-04-02T17:02:42.584Z,101632.80
2023-04-02T17:07:52.312Z,101643.05
2023-04-02T17:13:06.019Z,101648.05
2023-04-02T17:18:17.121Z,101653.56
2023-04-02T17:23:22.377Z,101665.52
2023-04-02T17:28:36.187Z,101670.20
2023-04-02T17:33:40.249Z,101673.55
2023-04-02T17:38:52.876Z,101680.07
2023-04-02T17:44:05.369Z,101694.54
2023-04-02T17:49:24.467Z,101705.11
2023-04-02T17:54:42.970Z,101713.48
2023-04-02T18:00:11.836Z,101718.77
2023-04-02T18:05:28.812Z,101727.52
2023-04-02T18:10:38.621Z,101733.63
2023-04-02T18:16:06.467Z,101745.30
2023-04-02T18:21:21.403Z,101754.50
2023-04-02T18:26:38.087Z,101764.77
2023-04-02T18:31:50.208Z,101771.77
2023-04-02T18:37:05.471Z,101779.52
2023-04-02T18:42:19.208Z,101788.88
2023-04-02T18:47:30.597Z,101805.03
2023-04-02T18:52:35.681Z,101811.33
2023-04-02T18:57:42.847Z,101816.45
2023-04-02T19:02:50.842Z,101822.21
2023-04-02T19:08:06.345Z,101831.13
2023-04-02T19:13:30.394Z,101839.42
2023-04-02T19:19:07.357Z,101842.28
2023-04-02T19:24:35.764Z,101847.14
2023-04-02T19:29:58.594Z,101851.95
2023-04-02T19:35:22.093Z,101858.27
2023-04-02T19:40:40.168Z,101863.70
2023-04-02T19:45:52.274Z,101863.92
2023-04-02T19:50:56.199Z,101864.29
2023-04-02T19:56:02.115Z,101868.10
2023-04-02T20:01:07.264Z,101871.09
2023-04-02T20:06:11.536Z,101876.42
2023-04-02T20:11:15.897Z,101876.47
2023-04-02T20:16:22.914Z,101881.80
2023-04-02T20:21:27.048Z,101888.77
2023-04-02T20:26:30.859Z,101898.58
2023-04-02T20:31:36.010Z,101906.21
2023-04-02T20:36:39.823Z,101908.21
2023-04-02T20:41:43.623Z,101913.92
2023-04-02T20:46:48.687Z,101920.26
2023-04-02T20:51:56.102Z,101924.58
2023-04-02T20:57:00.226Z,101930.02
2023-04-02T21:02:06.827Z,101934.84
2023-04-02T21:07:10.936Z,101935.09
2023-04-02T21:12:16.225Z,101939.05
2023-04-02T21:17:20.072Z,101945.48
2023-04-02T21:22:24.128Z,101955.98
2023-04-02T21:27:34.750Z,101961.64
2023-04-02T21:32:39.077Z,101961.30
2023-04-02T21:37:44.222Z,101966.53
2023-04-02T21:42:48.830Z,101964.95
2023-04-02T21:47:52.603Z,101969.25
2023-04-02T21:52:56.494Z,101977.80
2023-04-02T21:58:00.274Z,101983.84
2023-04-02T22:03:04.292Z,101986.90
2023-04-02T22:08:07.998Z,101988.23
2023-04-02T22:13:11.724Z,101990.91
2023-04-02T22:18:15.582Z,102000.35
2023-04-02T22:23:19.594Z,102006.14
2023-04-02T22:28:25.858Z,102005.59
2023-04-02T22:33:31.729Z,102003.42
2023-04-02T22:38:36.423Z,102007.38
2023-04-02T22:43:43.327Z,102008.31
2023-04-02T22:48:48.154Z,102014.17
2023-04-02T22:53:54.052Z,102015.85
2023-04-02T22:58:57.922Z,102014.36
2023-04-02T23:04:01.864Z,102014.08
2023-04-02T23:09:05.895Z,102019.41
2023-04-02T23:14:10.133Z,102025.14
2023-04-02T23:19:13.818Z,102026.23
2023-04-02T23:24:17.799Z,102023.23
2023-04-02T23:29:21.583Z,102029.05
2023-04-02T23:34:25.376Z,102029.60
2023-04-02T23:39:29.504Z,102033.67
2023-04-02T23:44:33.265Z,102041.39
2023-04-02T23:49:36.956Z,102046.36
2023-04-02T23:54:40.784Z,102044.77
2023-04-02T23:59:44.579Z,102041.14
